Belmont, New Hampshire
Current Conditions -  °F | °C
As of 12:35 PM on Wednesday 26 Nov 2014 (Local Time) from KLCI Reporting Station
Overcast Overcast  
Wind Chill: 28°   Ceiling: 500
Heat Index: 34°   Visibility: 0.5mi
Dew Point: 30°   Wind: 7mph
Humidity: 87%   Direction: 70°ENE
Pressure: 30.13"   Gusts: NA
Location:  43.44°N, 71.49°W
Report Text: KLCI 261735Z AUTO 07006KT 1/2SM OVC005 01/M01 A3013 RMK AO1 P0003
Loading
Personal Weather Stations






























Interactive Weather Map New forecast layout! Learn more

10-Day Weather Forecast

Advertisements
Track Severe Weather on mobile